sensor_id;sensor_type;location;lat;lon;timestamp;temperature;humidity
2477;DHT22;1249;51.270;6.756;2023-02-15T00:01:26;10.30;99.90
2477;DHT22;1249;51.270;6.756;2023-02-15T00:03:53;10.30;99.90
2477;DHT22;1249;51.270;6.756;2023-02-15T00:06:20;10.30;99.90
2477;DHT22;1249;51.270;6.756;2023-02-15T00:08:47;10.20;99.90
2477;DHT22;1249;51.270;6.756;2023-02-15T00:11:16;10.20;99.90
2477;DHT22;1249;51.270;6.756;2023-02-15T00:14:03;10.00;99.90
2477;DHT22;1249;51.270;6.756;2023-02-15T00:16:31;10.10;99.90
2477;DHT22;1249;51.270;6.756;2023-02-15T00:18:58;10.10;99.90
2477;DHT22;1249;51.270;6.756;2023-02-15T00:21:27;10.20;99.90
2477;DHT22;1249;51.270;6.756;2023-02-15T00:23:55;10.10;99.90
2477;DHT22;1249;51.270;6.756;2023-02-15T00:26:22;10.10;99.90
2477;DHT22;1249;51.270;6.756;2023-02-15T00:28:48;10.10;99.90
2477;DHT22;1249;51.270;6.756;2023-02-15T00:31:15;10.10;99.90
2477;DHT22;1249;51.270;6.756;2023-02-15T00:33:43;10.00;99.90
2477;DHT22;1249;51.270;6.756;2023-02-15T00:36:10;10.20;99.90
2477;DHT22;1249;51.270;6.756;2023-02-15T00:38:37;10.10;99.90
2477;DHT22;1249;51.270;6.756;2023-02-15T00:41:06;10.10;99.90
2477;DHT22;1249;51.270;6.756;2023-02-15T00:43:34;10.10;99.90
2477;DHT22;1249;51.270;6.756;2023-02-15T00:46:01;10.00;99.90
2477;DHT22;1249;51.270;6.756;2023-02-15T00:48:28;10.00;99.90
2477;DHT22;1249;51.270;6.756;2023-02-15T00:50:57;10.00;99.90
2477;DHT22;1249;51.270;6.756;2023-02-15T00:53:24;10.00;99.90
2477;DHT22;1249;51.270;6.756;2023-02-15T00:55:52;9.90;99.90
2477;DHT22;1249;51.270;6.756;2023-02-15T00:58:19;9.90;99.90
2477;DHT22;1249;51.270;6.756;2023-02-15T01:00:47;9.80;99.90
2477;DHT22;1249;51.270;6.756;2023-02-15T01:03:16;9.80;99.90
2477;DHT22;1249;51.270;6.756;2023-02-15T01:05:43;9.80;99.90
2477;DHT22;1249;51.270;6.756;2023-02-15T01:08:11;9.70;99.90
2477;DHT22;1249;51.270;6.756;2023-02-15T01:10:38;9.80;99.90
2477;DHT22;1249;51.270;6.756;2023-02-15T01:13:05;9.80;99.90
2477;DHT22;1249;51.270;6.756;2023-02-15T01:15:34;9.80;99.90
2477;DHT22;1249;51.270;6.756;2023-02-15T01:18:01;9.60;99.90
2477;DHT22;1249;51.270;6.756;2023-02-15T01:20:28;9.60;99.90
2477;DHT22;1249;51.270;6.756;2023-02-15T01:22:57;9.70;99.90
2477;DHT22;1249;51.270;6.756;2023-02-15T01:25:25;9.50;99.90
2477;DHT22;1249;51.270;6.756;2023-02-15T01:27:52;9.60;99.90
2477;DHT22;1249;51.270;6.756;2023-02-15T01:30:19;9.60;99.90
2477;DHT22;1249;51.270;6.756;2023-02-15T01:32:45;9.60;99.90
2477;DHT22;1249;51.270;6.756;2023-02-15T01:35:12;9.60;99.90
2477;DHT22;1249;51.270;6.756;2023-02-15T01:37:39;9.70;99.90
2477;DHT22;1249;51.270;6.756;2023-02-15T01:40:08;9.60;99.90
2477;DHT22;1249;51.270;6.756;2023-02-15T01:42:36;9.60;99.90
2477;DHT22;1249;51.270;6.756;2023-02-15T01:45:04;9.60;99.90
2477;DHT22;1249;51.270;6.756;2023-02-15T01:47:35;9.60;99.90
2477;DHT22;1249;51.270;6.756;2023-02-15T01:50:08;9.60;99.90
2477;DHT22;1249;51.270;6.756;2023-02-15T01:52:37;9.60;99.90
2477;DHT22;1249;51.270;6.756;2023-02-15T01:55:06;9.50;99.90
2477;DHT22;1249;51.270;6.756;2023-02-15T01:57:35;9.50;99.90
2477;DHT22;1249;51.270;6.756;2023-02-15T02:00:06;9.60;99.90
2477;DHT22;1249;51.270;6.756;2023-02-15T02:02:33;9.50;99.90
2477;DHT22;1249;51.270;6.756;2023-02-15T02:05:02;9.60;99.90
2477;DHT22;1249;51.270;6.756;2023-02-15T02:07:34;9.50;99.90
2477;DHT22;1249;51.270;6.756;2023-02-15T02:10:02;9.50;99.90
2477;DHT22;1249;51.270;6.756;2023-02-15T02:12:29;9.40;99.90
2477;DHT22;1249;51.270;6.756;2023-02-15T02:14:58;9.40;99.90
2477;DHT22;1249;51.270;6.756;2023-02-15T02:17:31;9.40;99.90
2477;DHT22;1249;51.270;6.756;2023-02-15T02:20:25;9.40;99.90
2477;DHT22;1249;51.270;6.756;2023-02-15T02:26:28;9.30;99.90
2477;DHT22;1249;51.270;6.756;2023-02-15T02:29:29;9.30;99.90
2477;DHT22;1249;51.270;6.756;2023-02-15T02:32:18;9.30;99.90
2477;DHT22;1249;51.270;6.756;2023-02-15T02:34:51;9.20;99.90
2477;DHT22;1249;51.270;6.756;2023-02-15T02:37:24;9.20;99.90
2477;DHT22;1249;51.270;6.756;2023-02-15T02:39:58;9.20;99.90
2477;DHT22;1249;51.270;6.756;2023-02-15T02:42:31;9.20;99.90
2477;DHT22;1249;51.270;6.756;2023-02-15T02:45:03;9.10;99.90
2477;DHT22;1249;51.270;6.756;2023-02-15T02:47:36;9.10;99.90
2477;DHT22;1249;51.270;6.756;2023-02-15T02:50:08;9.20;99.90
2477;DHT22;1249;51.270;6.756;2023-02-15T02:52:40;9.10;99.90
2477;DHT22;1249;51.270;6.756;2023-02-15T02:55:11;9.20;99.90
2477;DHT22;1249;51.270;6.756;2023-02-15T02:57:46;9.10;99.90
2477;DHT22;1249;51.270;6.756;2023-02-15T03:00:15;9.30;99.90
2477;DHT22;1249;51.270;6.756;2023-02-15T03:02:45;9.20;99.90
2477;DHT22;1249;51.270;6.756;2023-02-15T03:05:19;9.10;99.90
2477;DHT22;1249;51.270;6.756;2023-02-15T03:07:49;9.10;99.90
2477;DHT22;1249;51.270;6.756;2023-02-15T03:10:18;9.10;99.90
2477;DHT22;1249;51.270;6.756;2023-02-15T03:12:48;9.10;99.90
2477;DHT22;1249;51.270;6.756;2023-02-15T03:15:18;9.10;99.90
2477;DHT22;1249;51.270;6.756;2023-02-15T03:17:49;8.90;99.90
2477;DHT22;1249;51.270;6.756;2023-02-15T03:20:22;9.00;99.90
2477;DHT22;1249;51.270;6.756;2023-02-15T03:22:53;9.00;99.90
2477;DHT22;1249;51.270;6.756;2023-02-15T03:25:22;9.00;99.90
2477;DHT22;1249;51.270;6.756;2023-02-15T03:27:53;9.00;99.90
2477;DHT22;1249;51.270;6.756;2023-02-15T03:30:22;9.00;99.90
2477;DHT22;1249;51.270;6.756;2023-02-15T03:32:50;9.00;99.90
2477;DHT22;1249;51.270;6.756;2023-02-15T03:35:22;9.10;99.90
2477;DHT22;1249;51.270;6.756;2023-02-15T03:37:53;9.10;99.90
2477;DHT22;1249;51.270;6.756;2023-02-15T03:40:23;8.90;99.90
2477;DHT22;1249;51.270;6.756;2023-02-15T03:43:14;9.00;99.90
2477;DHT22;1249;51.270;6.756;2023-02-15T03:45:47;8.90;99.90
2477;DHT22;1249;51.270;6.756;2023-02-15T03:48:24;8.90;99.90
2477;DHT22;1249;51.270;6.756;2023-02-15T03:50:55;9.10;99.90
2477;DHT22;1249;51.270;6.756;2023-02-15T03:53:42;8.90;99.90
2477;DHT22;1249;51.270;6.756;2023-02-15T03:56:10;8.90;99.90
2477;DHT22;1249;51.270;6.756;2023-02-15T03:58:36;8.90;99.90
2477;DHT22;1249;51.270;6.756;2023-02-15T04:01:25;8.90;99.90
2477;DHT22;1249;51.270;6.756;2023-02-15T04:04:15;8.90;99.90
2477;DHT22;1249;51.270;6.756;2023-02-15T04:06:45;8.80;99.90
2477;DHT22;1249;51.270;6.756;2023-02-15T04:09:12;8.80;99.90
2477;DHT22;1249;51.270;6.756;2023-02-15T04:12:08;8.80;99.90
2477;DHT22;1249;51.270;6.756;2023-02-15T04:14:36;8.80;99.90
2477;DHT22;1249;51.270;6.756;2023-02-15T04:17:20;8.80;99.90
2477;DHT22;1249;51.270;6.756;2023-02-15T04:19:47;8.80;99.90
2477;DHT22;1249;51.270;6.756;2023-02-15T04:22:33;8.70;99.90
2477;DHT22;1249;51.270;6.756;2023-02-15T04:25:17;8.90;99.90
2477;DHT22;1249;51.270;6.756;2023-02-15T04:27:47;8.70;99.90
2477;DHT22;1249;51.270;6.756;2023-02-15T04:30:16;8.70;99.90
2477;DHT22;1249;51.270;6.756;2023-02-15T04:32:43;8.70;99.90
2477;DHT22;1249;51.270;6.756;2023-02-15T04:35:10;8.70;99.90
2477;DHT22;1249;51.270;6.756;2023-02-15T04:37:39;8.70;99.90
2477;DHT22;1249;51.270;6.756;2023-02-15T04:40:08;8.70;99.90
2477;DHT22;1249;51.270;6.756;2023-02-15T04:42:35;8.50;99.90
2477;DHT22;1249;51.270;6.756;2023-02-15T04:45:03;8.60;99.90
2477;DHT22;1249;51.270;6.756;2023-02-15T04:47:29;8.60;99.90
2477;DHT22;1249;51.270;6.756;2023-02-15T04:49:56;8.60;99.90
2477;DHT22;1249;51.270;6.756;2023-02-15T04:52:23;8.60;99.90
2477;DHT22;1249;51.270;6.756;2023-02-15T04:54:51;8.60;99.90
2477;DHT22;1249;51.270;6.756;2023-02-15T04:57:17;8.60;99.90
2477;DHT22;1249;51.270;6.756;2023-02-15T04:59:44;8.60;99.90
2477;DHT22;1249;51.270;6.756;2023-02-15T05:02:11;8.60;99.90
2477;DHT22;1249;51.270;6.756;2023-02-15T05:04:38;8.50;99.90
2477;DHT22;1249;51.270;6.756;2023-02-15T05:07:04;8.50;99.90
2477;DHT22;1249;51.270;6.756;2023-02-15T05:09:31;8.60;99.90
2477;DHT22;1249;51.270;6.756;2023-02-15T05:11:59;8.40;99.90
2477;DHT22;1249;51.270;6.756;2023-02-15T05:14:26;8.40;99.90
2477;DHT22;1249;51.270;6.756;2023-02-15T05:16:52;8.50;99.90
2477;DHT22;1249;51.270;6.756;2023-02-15T05:19:20;8.40;99.90
2477;DHT22;1249;51.270;6.756;2023-02-15T05:21:48;8.40;99.90
2477;DHT22;1249;51.270;6.756;2023-02-15T05:24:15;8.40;99.90
2477;DHT22;1249;51.270;6.756;2023-02-15T05:27:01;8.30;99.90
2477;DHT22;1249;51.270;6.756;2023-02-15T05:29:45;8.30;99.90
2477;DHT22;1249;51.270;6.756;2023-02-15T05:32:13;8.30;99.90
2477;DHT22;1249;51.270;6.756;2023-02-15T05:34:40;8.40;99.90
2477;DHT22;1249;51.270;6.756;2023-02-15T05:37:06;8.30;99.90
2477;DHT22;1249;51.270;6.756;2023-02-15T05:39:34;8.30;99.90
2477;DHT22;1249;51.270;6.756;2023-02-15T05:42:02;8.30;99.90
2477;DHT22;1249;51.270;6.756;2023-02-15T05:44:29;8.40;99.90
2477;DHT22;1249;51.270;6.756;2023-02-15T05:46:55;8.20;99.90
2477;DHT22;1249;51.270;6.756;2023-02-15T05:49:22;8.30;99.90
2477;DHT22;1249;51.270;6.756;2023-02-15T05:51:49;8.20;99.90
2477;DHT22;1249;51.270;6.756;2023-02-15T05:54:16;8.20;99.90
2477;DHT22;1249;51.270;6.756;2023-02-15T05:56:43;8.20;99.90
2477;DHT22;1249;51.270;6.756;2023-02-15T05:59:11;8.20;99.90
2477;DHT22;1249;51.270;6.756;2023-02-15T06:01:38;8.10;99.90
2477;DHT22;1249;51.270;6.756;2023-02-15T06:04:04;8.10;99.90
2477;DHT22;1249;51.270;6.756;2023-02-15T06:06:31;8.20;99.90
2477;DHT22;1249;51.270;6.756;2023-02-15T06:08:59;8.10;99.90
2477;DHT22;1249;51.270;6.756;2023-02-15T06:11:26;8.10;99.90
2477;DHT22;1249;51.270;6.756;2023-02-15T06:13:53;8.00;99.90
2477;DHT22;1249;51.270;6.756;2023-02-15T06:16:21;8.10;99.90
2477;DHT22;1249;51.270;6.756;2023-02-15T06:18:48;8.00;99.90
2477;DHT22;1249;51.270;6.756;2023-02-15T06:21:15;8.10;99.90
2477;DHT22;1249;51.270;6.756;2023-02-15T06:23:41;8.00;99.90
2477;DHT22;1249;51.270;6.756;2023-02-15T06:26:08;8.10;99.90
2477;DHT22;1249;51.270;6.756;2023-02-15T06:28:35;8.10;99.90
2477;DHT22;1249;51.270;6.756;2023-02-15T06:31:02;8.10;99.90
2477;DHT22;1249;51.270;6.756;2023-02-15T06:33:30;8.30;99.90
2477;DHT22;1249;51.270;6.756;2023-02-15T06:35:59;8.10;99.90
2477;DHT22;1249;51.270;6.756;2023-02-15T06:38:26;8.00;99.90
2477;DHT22;1249;51.270;6.756;2023-02-15T06:40:52;8.10;99.90
2477;DHT22;1249;51.270;6.756;2023-02-15T06:43:19;8.10;99.90
2477;DHT22;1249;51.270;6.756;2023-02-15T06:45:46;8.10;99.90
2477;DHT22;1249;51.270;6.756;2023-02-15T06:48:13;8.90;99.90
2477;DHT22;1249;51.270;6.756;2023-02-15T06:50:41;8.80;99.90
2477;DHT22;1249;51.270;6.756;2023-02-15T06:53:10;8.70;99.90
2477;DHT22;1249;51.270;6.756;2023-02-15T06:55:37;8.50;99.90
2477;DHT22;1249;51.270;6.756;2023-02-15T06:58:29;8.40;99.90
2477;DHT22;1249;51.270;6.756;2023-02-15T07:01:05;8.20;99.90
2477;DHT22;1249;51.270;6.756;2023-02-15T07:03:32;8.20;99.90
2477;DHT22;1249;51.270;6.756;2023-02-15T07:06:02;8.20;99.90
2477;DHT22;1249;51.270;6.756;2023-02-15T07:08:31;8.10;99.90
2477;DHT22;1249;51.270;6.756;2023-02-15T07:10:58;8.10;99.90
2477;DHT22;1249;51.270;6.756;2023-02-15T07:13:45;8.00;99.90
2477;DHT22;1249;51.270;6.756;2023-02-15T07:16:11;8.00;99.90
2477;DHT22;1249;51.270;6.756;2023-02-15T07:18:38;8.00;99.90
2477;DHT22;1249;51.270;6.756;2023-02-15T07:21:06;7.90;99.90
2477;DHT22;1249;51.270;6.756;2023-02-15T07:23:34;7.90;99.90
2477;DHT22;1249;51.270;6.756;2023-02-15T07:26:01;7.90;99.90
2477;DHT22;1249;51.270;6.756;2023-02-15T07:28:28;7.80;99.90
2477;DHT22;1249;51.270;6.756;2023-02-15T07:30:55;7.80;99.90
2477;DHT22;1249;51.270;6.756;2023-02-15T07:33:22;7.80;99.90
2477;DHT22;1249;51.270;6.756;2023-02-15T07:35:50;7.80;99.90
2477;DHT22;1249;51.270;6.756;2023-02-15T07:38:19;7.90;99.90
2477;DHT22;1249;51.270;6.756;2023-02-15T07:40:46;8.10;99.90
2477;DHT22;1249;51.270;6.756;2023-02-15T07:43:13;8.00;99.90
2477;DHT22;1249;51.270;6.756;2023-02-15T07:45:40;8.00;99.90
2477;DHT22;1249;51.270;6.756;2023-02-15T07:48:07;8.00;99.90
2477;DHT22;1249;51.270;6.756;2023-02-15T07:50:34;8.10;99.90
2477;DHT22;1249;51.270;6.756;2023-02-15T07:53:01;8.10;99.90
2477;DHT22;1249;51.270;6.756;2023-02-15T07:55:30;8.30;99.90
2477;DHT22;1249;51.270;6.756;2023-02-15T07:57:56;8.20;99.90
2477;DHT22;1249;51.270;6.756;2023-02-15T08:00:23;8.20;99.90
2477;DHT22;1249;51.270;6.756;2023-02-15T08:02:52;8.30;99.90
2477;DHT22;1249;51.270;6.756;2023-02-15T08:05:33;8.30;99.90
2477;DHT22;1249;51.270;6.756;2023-02-15T08:08:00;8.50;99.90
2477;DHT22;1249;51.270;6.756;2023-02-15T08:10:27;8.30;99.90
2477;DHT22;1249;51.270;6.756;2023-02-15T08:13:09;8.30;99.90
2477;DHT22;1249;51.270;6.756;2023-02-15T08:15:36;8.40;99.90
2477;DHT22;1249;51.270;6.756;2023-02-15T08:18:03;8.50;99.90
2477;DHT22;1249;51.270;6.756;2023-02-15T08:20:29;8.50;99.90
2477;DHT22;1249;51.270;6.756;2023-02-15T08:22:56;8.50;99.90
2477;DHT22;1249;51.270;6.756;2023-02-15T08:25:23;8.50;99.90
2477;DHT22;1249;51.270;6.756;2023-02-15T08:27:50;8.60;99.90
2477;DHT22;1249;51.270;6.756;2023-02-15T08:30:18;8.60;99.90
2477;DHT22;1249;51.270;6.756;2023-02-15T08:32:45;8.60;99.90
2477;DHT22;1249;51.270;6.756;2023-02-15T08:35:12;8.90;99.90
2477;DHT22;1249;51.270;6.756;2023-02-15T08:37:38;8.80;99.90
2477;DHT22;1249;51.270;6.756;2023-02-15T08:40:06;8.80;99.90
2477;DHT22;1249;51.270;6.756;2023-02-15T08:42:34;8.90;99.90
2477;DHT22;1249;51.270;6.756;2023-02-15T08:45:00;8.90;99.90
2477;DHT22;1249;51.270;6.756;2023-02-15T08:47:29;8.90;99.90
2477;DHT22;1249;51.270;6.756;2023-02-15T08:49:55;9.00;99.90
2477;DHT22;1249;51.270;6.756;2023-02-15T08:52:22;9.10;99.90
2477;DHT22;1249;51.270;6.756;2023-02-15T08:54:49;9.10;99.90
2477;DHT22;1249;51.270;6.756;2023-02-15T08:57:15;9.10;99.90
2477;DHT22;1249;51.270;6.756;2023-02-15T08:59:42;9.20;99.90
2477;DHT22;1249;51.270;6.756;2023-02-15T09:02:10;9.20;99.90
2477;DHT22;1249;51.270;6.756;2023-02-15T09:04:38;9.40;99.90
2477;DHT22;1249;51.270;6.756;2023-02-15T09:07:05;9.50;99.90
2477;DHT22;1249;51.270;6.756;2023-02-15T09:09:31;9.40;99.90
2477;DHT22;1249;51.270;6.756;2023-02-15T09:11:58;9.50;99.90
2477;DHT22;1249;51.270;6.756;2023-02-15T09:14:26;9.60;99.90
2477;DHT22;1249;51.270;6.756;2023-02-15T09:16:53;9.60;99.90
2477;DHT22;1249;51.270;6.756;2023-02-15T09:19:21;9.60;99.90
2477;DHT22;1249;51.270;6.756;2023-02-15T09:21:49;9.60;99.90
2477;DHT22;1249;51.270;6.756;2023-02-15T09:24:17;9.70;99.90
2477;DHT22;1249;51.270;6.756;2023-02-15T09:26:46;9.70;99.90
2477;DHT22;1249;51.270;6.756;2023-02-15T09:29:14;9.70;99.90
2477;DHT22;1249;51.270;6.756;2023-02-15T09:31:45;9.70;99.90
2477;DHT22;1249;51.270;6.756;2023-02-15T09:34:12;9.70;99.90
2477;DHT22;1249;51.270;6.756;2023-02-15T09:36:41;9.80;99.90
2477;DHT22;1249;51.270;6.756;2023-02-15T09:39:11;9.90;99.90
2477;DHT22;1249;51.270;6.756;2023-02-15T09:41:57;9.90;99.90
2477;DHT22;1249;51.270;6.756;2023-02-15T09:44:38;9.90;99.90
2477;DHT22;1249;51.270;6.756;2023-02-15T09:47:24;10.00;99.90
2477;DHT22;1249;51.270;6.756;2023-02-15T09:50:01;10.10;99.90
2477;DHT22;1249;51.270;6.756;2023-02-15T09:52:49;10.30;99.90
2477;DHT22;1249;51.270;6.756;2023-02-15T09:55:42;10.50;99.90
2477;DHT22;1249;51.270;6.756;2023-02-15T09:58:20;11.10;99.90
2477;DHT22;1249;51.270;6.756;2023-02-15T10:00:55;11.40;99.90
2477;DHT22;1249;51.270;6.756;2023-02-15T10:03:37;11.80;99.90
2477;DHT22;1249;51.270;6.756;2023-02-15T10:06:20;11.80;99.90
2477;DHT22;1249;51.270;6.756;2023-02-15T10:09:05;11.50;99.90
2477;DHT22;1249;51.270;6.756;2023-02-15T10:11:52;11.20;99.90
2477;DHT22;1249;51.270;6.756;2023-02-15T10:14:36;11.10;99.90
2477;DHT22;1249;51.270;6.756;2023-02-15T10:17:19;11.10;99.90
2477;DHT22;1249;51.270;6.756;2023-02-15T10:19:59;11.70;99.90
2477;DHT22;1249;51.270;6.756;2023-02-15T10:22:39;12.60;99.90
2477;DHT22;1249;51.270;6.756;2023-02-15T10:25:22;13.30;99.90
2477;DHT22;1249;51.270;6.756;2023-02-15T10:27:53;13.90;99.90
2477;DHT22;1249;51.270;6.756;2023-02-15T10:30:27;14.50;99.90
2477;DHT22;1249;51.270;6.756;2023-02-15T10:33:00;14.50;99.90
2477;DHT22;1249;51.270;6.756;2023-02-15T10:35:35;14.70;99.90
2477;DHT22;1249;51.270;6.756;2023-02-15T10:38:19;14.70;99.90
2477;DHT22;1249;51.270;6.756;2023-02-15T10:40:56;14.60;99.90
2477;DHT22;1249;51.270;6.756;2023-02-15T10:43:41;14.40;98.60
2477;DHT22;1249;51.270;6.756;2023-02-15T10:46:16;14.50;99.90
2477;DHT22;1249;51.270;6.756;2023-02-15T10:49:20;15.30;99.90
2477;DHT22;1249;51.270;6.756;2023-02-15T10:51:56;16.00;99.90
2477;DHT22;1249;51.270;6.756;2023-02-15T10:54:35;16.30;99.90
2477;DHT22;1249;51.270;6.756;2023-02-15T10:57:08;16.90;99.90
2477;DHT22;1249;51.270;6.756;2023-02-15T10:59:57;17.40;99.90
2477;DHT22;1249;51.270;6.756;2023-02-15T11:02:37;17.70;99.10
2477;DHT22;1249;51.270;6.756;2023-02-15T11:05:24;17.90;95.30
2477;DHT22;1249;51.270;6.756;2023-02-15T11:07:55;18.00;93.30
2477;DHT22;1249;51.270;6.756;2023-02-15T11:10:29;18.00;92.10
2477;DHT22;1249;51.270;6.756;2023-02-15T11:12:57;18.30;90.80
2477;DHT22;1249;51.270;6.756;2023-02-15T11:15:30;18.90;90.30
2477;DHT22;1249;51.270;6.756;2023-02-15T11:18:01;19.00;90.00
2477;DHT22;1249;51.270;6.756;2023-02-15T11:20:33;19.30;88.30
2477;DHT22;1249;51.270;6.756;2023-02-15T11:23:02;19.30;85.10
2477;DHT22;1249;51.270;6.756;2023-02-15T11:25:30;18.90;78.10
2477;DHT22;1249;51.270;6.756;2023-02-15T11:27:59;18.40;76.50
2477;DHT22;1249;51.270;6.756;2023-02-15T11:30:38;18.00;75.90
2477;DHT22;1249;51.270;6.756;2023-02-15T11:33:15;17.90;75.40
2477;DHT22;1249;51.270;6.756;2023-02-15T11:35:50;17.60;76.50
2477;DHT22;1249;51.270;6.756;2023-02-15T11:38:21;17.40;75.20
2477;DHT22;1249;51.270;6.756;2023-02-15T11:40:50;17.50;78.60
2477;DHT22;1249;51.270;6.756;2023-02-15T11:43:23;17.80;90.70
2477;DHT22;1249;51.270;6.756;2023-02-15T11:45:56;18.50;90.50
2477;DHT22;1249;51.270;6.756;2023-02-15T11:48:24;18.60;82.70
2477;DHT22;1249;51.270;6.756;2023-02-15T11:50:50;18.40;78.30
2477;DHT22;1249;51.270;6.756;2023-02-15T11:53:18;18.40;76.50
2477;DHT22;1249;51.270;6.756;2023-02-15T11:55:48;18.40;76.70
2477;DHT22;1249;51.270;6.756;2023-02-15T11:58:23;18.30;76.70
2477;DHT22;1249;51.270;6.756;2023-02-15T12:00:58;18.30;77.10
2477;DHT22;1249;51.270;6.756;2023-02-15T12:03:29;18.30;76.50
2477;DHT22;1249;51.270;6.756;2023-02-15T12:06:04;18.40;76.60
2477;DHT22;1249;51.270;6.756;2023-02-15T12:08:37;18.10;76.60
2477;DHT22;1249;51.270;6.756;2023-02-15T12:11:07;18.40;85.10
2477;DHT22;1249;51.270;6.756;2023-02-15T12:13:54;18.70;81.40
2477;DHT22;1249;51.270;6.756;2023-02-15T12:16:22;18.40;75.60
2477;DHT22;1249;51.270;6.756;2023-02-15T12:18:52;18.50;75.40
2477;DHT22;1249;51.270;6.756;2023-02-15T12:21:26;18.40;75.70
2477;DHT22;1249;51.270;6.756;2023-02-15T12:23:55;18.40;75.90
2477;DHT22;1249;51.270;6.756;2023-02-15T12:26:27;18.50;77.00
2477;DHT22;1249;51.270;6.756;2023-02-15T12:28:55;18.60;75.60
2477;DHT22;1249;51.270;6.756;2023-02-15T12:31:28;18.70;74.40
2477;DHT22;1249;51.270;6.756;2023-02-15T12:33:59;18.70;74.80
2477;DHT22;1249;51.270;6.756;2023-02-15T12:36:30;18.90;75.30
2477;DHT22;1249;51.270;6.756;2023-02-15T12:39:04;18.90;75.00
2477;DHT22;1249;51.270;6.756;2023-02-15T12:41:31;19.00;75.40
2477;DHT22;1249;51.270;6.756;2023-02-15T12:44:07;19.10;73.80
2477;DHT22;1249;51.270;6.756;2023-02-15T12:46:56;19.40;86.30
2477;DHT22;1249;51.270;6.756;2023-02-15T12:49:23;20.20;86.20
2477;DHT22;1249;51.270;6.756;2023-02-15T12:51:53;20.60;85.40
2477;DHT22;1249;51.270;6.756;2023-02-15T12:54:35;21.00;84.60
2477;DHT22;1249;51.270;6.756;2023-02-15T12:57:25;21.20;83.80
2477;DHT22;1249;51.270;6.756;2023-02-15T12:59:54;21.30;82.70
2477;DHT22;1249;51.270;6.756;2023-02-15T13:02:25;21.40;80.20
2477;DHT22;1249;51.270;6.756;2023-02-15T13:04:54;21.70;79.20
2477;DHT22;1249;51.270;6.756;2023-02-15T13:07:22;21.80;77.00
2477;DHT22;1249;51.270;6.756;2023-02-15T13:09:50;21.90;76.50
2477;DHT22;1249;51.270;6.756;2023-02-15T13:12:20;21.90;74.60
2477;DHT22;1249;51.270;6.756;2023-02-15T13:14:48;22.10;73.40
2477;DHT22;1249;51.270;6.756;2023-02-15T13:17:18;22.20;72.90
2477;DHT22;1249;51.270;6.756;2023-02-15T13:19:49;22.40;71.10
2477;DHT22;1249;51.270;6.756;2023-02-15T13:22:21;22.30;70.30
2477;DHT22;1249;51.270;6.756;2023-02-15T13:24:53;22.30;70.60
2477;DHT22;1249;51.270;6.756;2023-02-15T13:27:24;22.20;71.40
2477;DHT22;1249;51.270;6.756;2023-02-15T13:29:55;22.30;71.20
2477;DHT22;1249;51.270;6.756;2023-02-15T13:32:28;22.20;69.40
2477;DHT22;1249;51.270;6.756;2023-02-15T13:34:59;22.20;68.30
2477;DHT22;1249;51.270;6.756;2023-02-15T13:37:39;22.20;70.10
2477;DHT22;1249;51.270;6.756;2023-02-15T13:40:11;22.30;71.60
2477;DHT22;1249;51.270;6.756;2023-02-15T13:42:41;22.30;71.00
2477;DHT22;1249;51.270;6.756;2023-02-15T13:45:21;22.30;70.40
2477;DHT22;1249;51.270;6.756;2023-02-15T13:47:57;22.30;69.10
2477;DHT22;1249;51.270;6.756;2023-02-15T13:50:39;22.40;68.80
2477;DHT22;1249;51.270;6.756;2023-02-15T13:56:23;22.30;69.70
2477;DHT22;1249;51.270;6.756;2023-02-15T13:59:02;22.30;68.70
2477;DHT22;1249;51.270;6.756;2023-02-15T14:01:39;22.30;68.60
2477;DHT22;1249;51.270;6.756;2023-02-15T14:04:22;22.30;68.70
2477;DHT22;1249;51.270;6.756;2023-02-15T14:07:12;22.50;68.30
2477;DHT22;1249;51.270;6.756;2023-02-15T14:09:48;22.20;68.30
2477;DHT22;1249;51.270;6.756;2023-02-15T14:12:29;22.20;70.10
2477;DHT22;1249;51.270;6.756;2023-02-15T14:15:13;22.10;69.60
2477;DHT22;1249;51.270;6.756;2023-02-15T14:17:54;22.00;68.80
2477;DHT22;1249;51.270;6.756;2023-02-15T14:20:32;21.90;69.70
2477;DHT22;1249;51.270;6.756;2023-02-15T14:23:11;21.80;68.60
2477;DHT22;1249;51.270;6.756;2023-02-15T14:25:43;21.60;69.60
2477;DHT22;1249;51.270;6.756;2023-02-15T14:28:15;21.30;70.10
2477;DHT22;1249;51.270;6.756;2023-02-15T14:30:45;21.20;72.80
2477;DHT22;1249;51.270;6.756;2023-02-15T14:33:31;21.20;71.10
2477;DHT22;1249;51.270;6.756;2023-02-15T14:35:59;20.90;71.90
2477;DHT22;1249;51.270;6.756;2023-02-15T14:38:40;20.80;71.30
2477;DHT22;1249;51.270;6.756;2023-02-15T14:41:12;20.90;72.70
2477;DHT22;1249;51.270;6.756;2023-02-15T14:43:48;20.50;72.90
2477;DHT22;1249;51.270;6.756;2023-02-15T14:46:22;20.40;72.10
2477;DHT22;1249;51.270;6.756;2023-02-15T14:48:53;20.40;73.60
2477;DHT22;1249;51.270;6.756;2023-02-15T14:54:58;20.00;73.80
2477;DHT22;1249;51.270;6.756;2023-02-15T14:57:27;19.80;72.70
2477;DHT22;1249;51.270;6.756;2023-02-15T14:59:57;19.70;73.80
2477;DHT22;1249;51.270;6.756;2023-02-15T15:02:29;19.60;74.40
2477;DHT22;1249;51.270;6.756;2023-02-15T15:05:02;19.50;73.10
2477;DHT22;1249;51.270;6.756;2023-02-15T15:07:41;19.50;74.10
2477;DHT22;1249;51.270;6.756;2023-02-15T15:10:34;19.40;73.20
2477;DHT22;1249;51.270;6.756;2023-02-15T15:13:35;19.40;74.00
2477;DHT22;1249;51.270;6.756;2023-02-15T15:19:10;19.00;72.20
2477;DHT22;1249;51.270;6.756;2023-02-15T15:21:56;18.50;69.10
2477;DHT22;1249;51.270;6.756;2023-02-15T15:24:49;18.20;68.40
2477;DHT22;1249;51.270;6.756;2023-02-15T15:27:47;18.00;70.20
2477;DHT22;1249;51.270;6.756;2023-02-15T15:33:46;17.40;70.20
2477;DHT22;1249;51.270;6.756;2023-02-15T15:36:39;17.20;70.20
2477;DHT22;1249;51.270;6.756;2023-02-15T15:39:27;17.00;70.40
2477;DHT22;1249;51.270;6.756;2023-02-15T15:42:03;16.80;70.00
2477;DHT22;1249;51.270;6.756;2023-02-15T15:44:59;16.70;70.90
2477;DHT22;1249;51.270;6.756;2023-02-15T15:47:39;16.60;71.30
2477;DHT22;1249;51.270;6.756;2023-02-15T15:50:12;16.50;71.80
2477;DHT22;1249;51.270;6.756;2023-02-15T15:52:41;16.50;83.80
2477;DHT22;1249;51.270;6.756;2023-02-15T15:55:16;16.80;86.50
2477;DHT22;1249;51.270;6.756;2023-02-15T15:57:46;17.10;86.10
2477;DHT22;1249;51.270;6.756;2023-02-15T16:00:35;17.30;85.30
2477;DHT22;1249;51.270;6.756;2023-02-15T16:03:02;17.30;84.40
2477;DHT22;1249;51.270;6.756;2023-02-15T16:05:36;17.20;85.90
2477;DHT22;1249;51.270;6.756;2023-02-15T16:08:03;17.10;86.00
2477;DHT22;1249;51.270;6.756;2023-02-15T16:10:30;17.00;88.70
2477;DHT22;1249;51.270;6.756;2023-02-15T16:12:59;16.80;89.00
2477;DHT22;1249;51.270;6.756;2023-02-15T16:15:34;16.80;89.60
2477;DHT22;1249;51.270;6.756;2023-02-15T16:18:02;16.50;90.10
2477;DHT22;1249;51.270;6.756;2023-02-15T16:20:30;16.30;90.60
2477;DHT22;1249;51.270;6.756;2023-02-15T16:23:08;16.10;90.90
2477;DHT22;1249;51.270;6.756;2023-02-15T16:25:43;16.00;91.50
2477;DHT22;1249;51.270;6.756;2023-02-15T16:28:14;15.90;91.90
2477;DHT22;1249;51.270;6.756;2023-02-15T16:30:45;15.80;92.50
2477;DHT22;1249;51.270;6.756;2023-02-15T16:33:13;15.70;93.00
2477;DHT22;1249;51.270;6.756;2023-02-15T16:35:53;15.50;93.50
2477;DHT22;1249;51.270;6.756;2023-02-15T16:38:34;15.40;93.80
2477;DHT22;1249;51.270;6.756;2023-02-15T16:41:13;15.40;94.60
2477;DHT22;1249;51.270;6.756;2023-02-15T16:43:42;15.40;95.40
2477;DHT22;1249;51.270;6.756;2023-02-15T16:46:15;15.20;96.10
2477;DHT22;1249;51.270;6.756;2023-02-15T16:48:46;15.20;96.70
2477;DHT22;1249;51.270;6.756;2023-02-15T16:51:20;15.10;97.40
2477;DHT22;1249;51.270;6.756;2023-02-15T16:53:47;15.10;97.80
2477;DHT22;1249;51.270;6.756;2023-02-15T16:56:15;15.00;98.20
2477;DHT22;1249;51.270;6.756;2023-02-15T16:58:44;15.00;98.60